sensor_id;sensor_type;location;lat;lon;timestamp;P1;durP1;ratioP1;P2;durP2;ratioP2
10281;SDS011;5186;59.472;18.048;2022-08-19T00:01:29;33.67;;;20.17;;
10281;SDS011;5186;59.472;18.048;2022-08-19T00:03:58;32.90;;;19.93;;
10281;SDS011;5186;59.472;18.048;2022-08-19T00:06:26;31.30;;;19.27;;
10281;SDS011;5186;59.472;18.048;2022-08-19T00:08:53;36.53;;;20.27;;
10281;SDS011;5186;59.472;18.048;2022-08-19T00:11:19;40.93;;;20.10;;
10281;SDS011;5186;59.472;18.048;2022-08-19T00:13:45;37.67;;;22.03;;
10281;SDS011;5186;59.472;18.048;2022-08-19T00:16:13;35.10;;;20.37;;
10281;SDS011;5186;59.472;18.048;2022-08-19T00:18:39;38.37;;;21.47;;
10281;SDS011;5186;59.472;18.048;2022-08-19T00:21:05;37.03;;;21.83;;
10281;SDS011;5186;59.472;18.048;2022-08-19T00:23:32;37.93;;;21.73;;
10281;SDS011;5186;59.472;18.048;2022-08-19T00:25:59;38.10;;;22.33;;
10281;SDS011;5186;59.472;18.048;2022-08-19T00:28:25;38.90;;;22.87;;
10281;SDS011;5186;59.472;18.048;2022-08-19T00:30:51;44.40;;;22.80;;
10281;SDS011;5186;59.472;18.048;2022-08-19T00:33:18;39.40;;;23.10;;
10281;SDS011;5186;59.472;18.048;2022-08-19T00:35:44;41.40;;;21.97;;
10281;SDS011;5186;59.472;18.048;2022-08-19T00:38:09;40.20;;;22.70;;
10281;SDS011;5186;59.472;18.048;2022-08-19T00:40:35;42.53;;;24.00;;
10281;SDS011;5186;59.472;18.048;2022-08-19T00:43:01;41.00;;;24.03;;
10281;SDS011;5186;59.472;18.048;2022-08-19T00:45:32;41.47;;;25.30;;
10281;SDS011;5186;59.472;18.048;2022-08-19T00:47:58;40.33;;;24.43;;
10281;SDS011;5186;59.472;18.048;2022-08-19T00:50:28;44.00;;;25.17;;
10281;SDS011;5186;59.472;18.048;2022-08-19T00:52:54;40.83;;;25.13;;
10281;SDS011;5186;59.472;18.048;2022-08-19T00:55:22;42.93;;;25.13;;
10281;SDS011;5186;59.472;18.048;2022-08-19T00:57:53;41.33;;;25.70;;
10281;SDS011;5186;59.472;18.048;2022-08-19T01:00:23;44.37;;;26.83;;
10281;SDS011;5186;59.472;18.048;2022-08-19T01:02:50;39.57;;;25.97;;
10281;SDS011;5186;59.472;18.048;2022-08-19T01:05:20;41.67;;;26.03;;
10281;SDS011;5186;59.472;18.048;2022-08-19T01:07:47;40.83;;;26.63;;
10281;SDS011;5186;59.472;18.048;2022-08-19T01:10:16;37.23;;;25.43;;
10281;SDS011;5186;59.472;18.048;2022-08-19T01:12:45;43.30;;;26.07;;
10281;SDS011;5186;59.472;18.048;2022-08-19T01:15:14;39.97;;;26.20;;
10281;SDS011;5186;59.472;18.048;2022-08-19T01:17:46;42.60;;;26.27;;
10281;SDS011;5186;59.472;18.048;2022-08-19T01:20:13;35.87;;;25.43;;
10281;SDS011;5186;59.472;18.048;2022-08-19T01:25:15;37.87;;;26.80;;
10281;SDS011;5186;59.472;18.048;2022-08-19T01:27:45;42.70;;;26.10;;
10281;SDS011;5186;59.472;18.048;2022-08-19T01:30:14;37.97;;;25.00;;
10281;SDS011;5186;59.472;18.048;2022-08-19T01:32:43;38.13;;;24.87;;
10281;SDS011;5186;59.472;18.048;2022-08-19T01:35:09;35.90;;;26.03;;
10281;SDS011;5186;59.472;18.048;2022-08-19T01:37:53;36.10;;;25.80;;
10281;SDS011;5186;59.472;18.048;2022-08-19T01:40:22;33.90;;;24.43;;
10281;SDS011;5186;59.472;18.048;2022-08-19T01:42:51;35.87;;;24.67;;
10281;SDS011;5186;59.472;18.048;2022-08-19T01:45:18;38.83;;;24.43;;
10281;SDS011;5186;59.472;18.048;2022-08-19T01:47:45;35.50;;;24.23;;
10281;SDS011;5186;59.472;18.048;2022-08-19T01:50:12;31.90;;;23.73;;
10281;SDS011;5186;59.472;18.048;2022-08-19T01:52:41;31.90;;;25.00;;
10281;SDS011;5186;59.472;18.048;2022-08-19T01:55:09;34.43;;;23.90;;
10281;SDS011;5186;59.472;18.048;2022-08-19T01:57:41;28.93;;;23.47;;
10281;SDS011;5186;59.472;18.048;2022-08-19T02:00:13;32.00;;;22.77;;
10281;SDS011;5186;59.472;18.048;2022-08-19T02:02:41;32.00;;;22.53;;
10281;SDS011;5186;59.472;18.048;2022-08-19T02:05:07;31.90;;;22.73;;
10281;SDS011;5186;59.472;18.048;2022-08-19T02:07:33;28.50;;;21.87;;
10281;SDS011;5186;59.472;18.048;2022-08-19T02:10:00;26.47;;;21.47;;
10281;SDS011;5186;59.472;18.048;2022-08-19T02:12:31;28.17;;;21.57;;
10281;SDS011;5186;59.472;18.048;2022-08-19T02:14:56;24.50;;;20.73;;
10281;SDS011;5186;59.472;18.048;2022-08-19T02:17:23;26.50;;;20.50;;
10281;SDS011;5186;59.472;18.048;2022-08-19T02:19:49;27.40;;;21.80;;
10281;SDS011;5186;59.472;18.048;2022-08-19T02:22:15;27.47;;;21.70;;
10281;SDS011;5186;59.472;18.048;2022-08-19T02:24:40;26.53;;;20.53;;
10281;SDS011;5186;59.472;18.048;2022-08-19T02:27:06;28.90;;;20.90;;
10281;SDS011;5186;59.472;18.048;2022-08-19T02:29:31;24.23;;;20.20;;
10281;SDS011;5186;59.472;18.048;2022-08-19T02:31:57;26.93;;;20.43;;
10281;SDS011;5186;59.472;18.048;2022-08-19T02:34:23;29.73;;;21.53;;
10281;SDS011;5186;59.472;18.048;2022-08-19T02:36:50;28.33;;;21.63;;
10281;SDS011;5186;59.472;18.048;2022-08-19T02:39:16;28.10;;;21.37;;
10281;SDS011;5186;59.472;18.048;2022-08-19T02:41:42;26.67;;;20.90;;
10281;SDS011;5186;59.472;18.048;2022-08-19T02:44:08;26.53;;;20.53;;
10281;SDS011;5186;59.472;18.048;2022-08-19T02:46:34;28.60;;;21.80;;
10281;SDS011;5186;59.472;18.048;2022-08-19T02:49:03;31.73;;;22.17;;
10281;SDS011;5186;59.472;18.048;2022-08-19T02:51:31;25.10;;;20.40;;
10281;SDS011;5186;59.472;18.048;2022-08-19T02:53:59;32.60;;;22.37;;
10281;SDS011;5186;59.472;18.048;2022-08-19T02:56:25;29.53;;;21.47;;
10281;SDS011;5186;59.472;18.048;2022-08-19T02:58:52;28.07;;;21.30;;
10281;SDS011;5186;59.472;18.048;2022-08-19T03:01:23;24.93;;;20.23;;
10281;SDS011;5186;59.472;18.048;2022-08-19T03:03:50;28.97;;;21.80;;
10281;SDS011;5186;59.472;18.048;2022-08-19T03:06:17;26.63;;;21.43;;
10281;SDS011;5186;59.472;18.048;2022-08-19T03:08:44;27.73;;;20.97;;
10281;SDS011;5186;59.472;18.048;2022-08-19T03:11:14;28.93;;;21.43;;
10281;SDS011;5186;59.472;18.048;2022-08-19T03:13:42;28.63;;;21.87;;
10281;SDS011;5186;59.472;18.048;2022-08-19T03:16:08;29.20;;;21.70;;
10281;SDS011;5186;59.472;18.048;2022-08-19T03:18:34;27.40;;;20.83;;
10281;SDS011;5186;59.472;18.048;2022-08-19T03:21:00;27.90;;;21.53;;
10281;SDS011;5186;59.472;18.048;2022-08-19T03:23:26;27.60;;;21.80;;
10281;SDS011;5186;59.472;18.048;2022-08-19T03:25:52;31.70;;;22.37;;
10281;SDS011;5186;59.472;18.048;2022-08-19T03:28:19;27.43;;;21.43;;
10281;SDS011;5186;59.472;18.048;2022-08-19T03:30:54;28.83;;;21.67;;
10281;SDS011;5186;59.472;18.048;2022-08-19T03:33:32;30.60;;;23.17;;
10281;SDS011;5186;59.472;18.048;2022-08-19T03:36:01;30.00;;;21.80;;
10281;SDS011;5186;59.472;18.048;2022-08-19T03:38:27;27.13;;;21.93;;
10281;SDS011;5186;59.472;18.048;2022-08-19T03:40:53;29.83;;;21.57;;
10281;SDS011;5186;59.472;18.048;2022-08-19T03:43:18;27.43;;;21.60;;
10281;SDS011;5186;59.472;18.048;2022-08-19T03:45:44;29.43;;;21.17;;
10281;SDS011;5186;59.472;18.048;2022-08-19T03:48:09;31.23;;;22.60;;
10281;SDS011;5186;59.472;18.048;2022-08-19T03:50:41;28.20;;;21.47;;
10281;SDS011;5186;59.472;18.048;2022-08-19T03:53:07;28.33;;;21.77;;
10281;SDS011;5186;59.472;18.048;2022-08-19T03:55:33;25.57;;;20.63;;
10281;SDS011;5186;59.472;18.048;2022-08-19T03:58:04;25.33;;;20.83;;
10281;SDS011;5186;59.472;18.048;2022-08-19T04:00:31;25.63;;;20.83;;
10281;SDS011;5186;59.472;18.048;2022-08-19T04:02:58;27.10;;;20.87;;
10281;SDS011;5186;59.472;18.048;2022-08-19T04:05:24;29.70;;;20.33;;
10281;SDS011;5186;59.472;18.048;2022-08-19T04:07:52;29.60;;;20.43;;
10281;SDS011;5186;59.472;18.048;2022-08-19T04:10:18;24.93;;;19.57;;
10281;SDS011;5186;59.472;18.048;2022-08-19T04:12:43;26.80;;;21.03;;
10281;SDS011;5186;59.472;18.048;2022-08-19T04:15:09;29.03;;;20.47;;
10281;SDS011;5186;59.472;18.048;2022-08-19T04:17:35;23.47;;;19.40;;
10281;SDS011;5186;59.472;18.048;2022-08-19T04:20:00;25.73;;;20.63;;
10281;SDS011;5186;59.472;18.048;2022-08-19T04:22:26;28.43;;;21.17;;
10281;SDS011;5186;59.472;18.048;2022-08-19T04:24:52;26.30;;;20.83;;
10281;SDS011;5186;59.472;18.048;2022-08-19T04:27:17;27.10;;;20.20;;
10281;SDS011;5186;59.472;18.048;2022-08-19T04:29:43;26.77;;;19.70;;
10281;SDS011;5186;59.472;18.048;2022-08-19T04:32:08;26.63;;;20.73;;
10281;SDS011;5186;59.472;18.048;2022-08-19T04:34:34;25.40;;;20.97;;
10281;SDS011;5186;59.472;18.048;2022-08-19T04:37:00;25.23;;;19.07;;
10281;SDS011;5186;59.472;18.048;2022-08-19T04:39:27;27.43;;;20.93;;
10281;SDS011;5186;59.472;18.048;2022-08-19T04:42:13;27.73;;;20.23;;
10281;SDS011;5186;59.472;18.048;2022-08-19T04:44:58;31.33;;;22.10;;
10281;SDS011;5186;59.472;18.048;2022-08-19T04:47:24;27.73;;;20.27;;
10281;SDS011;5186;59.472;18.048;2022-08-19T04:49:50;27.40;;;21.30;;
10281;SDS011;5186;59.472;18.048;2022-08-19T04:52:16;29.13;;;21.40;;
10281;SDS011;5186;59.472;18.048;2022-08-19T04:54:41;27.93;;;20.70;;
10281;SDS011;5186;59.472;18.048;2022-08-19T04:57:07;25.60;;;19.67;;
10281;SDS011;5186;59.472;18.048;2022-08-19T04:59:35;28.03;;;20.67;;
10281;SDS011;5186;59.472;18.048;2022-08-19T05:02:02;28.97;;;21.00;;
10281;SDS011;5186;59.472;18.048;2022-08-19T05:04:28;24.33;;;18.47;;
10281;SDS011;5186;59.472;18.048;2022-08-19T05:06:55;25.27;;;18.43;;
10281;SDS011;5186;59.472;18.048;2022-08-19T05:09:21;26.83;;;19.30;;
10281;SDS011;5186;59.472;18.048;2022-08-19T05:11:47;23.90;;;18.23;;
10281;SDS011;5186;59.472;18.048;2022-08-19T05:14:14;21.57;;;18.53;;
10281;SDS011;5186;59.472;18.048;2022-08-19T05:16:40;22.47;;;17.77;;
10281;SDS011;5186;59.472;18.048;2022-08-19T05:19:06;23.70;;;18.40;;
10281;SDS011;5186;59.472;18.048;2022-08-19T05:21:50;22.80;;;18.83;;
10281;SDS011;5186;59.472;18.048;2022-08-19T05:24:34;25.67;;;19.43;;
10281;SDS011;5186;59.472;18.048;2022-08-19T05:27:01;29.97;;;19.20;;
10281;SDS011;5186;59.472;18.048;2022-08-19T05:29:28;26.63;;;18.93;;
10281;SDS011;5186;59.472;18.048;2022-08-19T05:31:54;31.33;;;19.27;;
10281;SDS011;5186;59.472;18.048;2022-08-19T05:34:21;24.73;;;19.40;;
10281;SDS011;5186;59.472;18.048;2022-08-19T05:36:53;22.30;;;17.87;;
10281;SDS011;5186;59.472;18.048;2022-08-19T05:39:22;22.43;;;17.70;;
10281;SDS011;5186;59.472;18.048;2022-08-19T05:41:50;22.80;;;18.77;;
10281;SDS011;5186;59.472;18.048;2022-08-19T05:44:19;24.53;;;18.33;;
10281;SDS011;5186;59.472;18.048;2022-08-19T05:46:46;26.13;;;19.23;;
10281;SDS011;5186;59.472;18.048;2022-08-19T05:49:12;23.00;;;18.10;;
10281;SDS011;5186;59.472;18.048;2022-08-19T05:51:40;24.40;;;17.20;;
10281;SDS011;5186;59.472;18.048;2022-08-19T05:54:06;18.40;;;16.03;;
10281;SDS011;5186;59.472;18.048;2022-08-19T05:56:33;18.13;;;15.10;;
10281;SDS011;5186;59.472;18.048;2022-08-19T05:59:03;21.37;;;15.83;;
10281;SDS011;5186;59.472;18.048;2022-08-19T06:01:33;17.60;;;14.30;;
10281;SDS011;5186;59.472;18.048;2022-08-19T06:03:59;20.47;;;16.27;;
10281;SDS011;5186;59.472;18.048;2022-08-19T06:06:25;21.53;;;16.57;;
10281;SDS011;5186;59.472;18.048;2022-08-19T06:08:50;23.13;;;16.90;;
10281;SDS011;5186;59.472;18.048;2022-08-19T06:13:51;20.80;;;15.13;;
10281;SDS011;5186;59.472;18.048;2022-08-19T06:16:21;18.60;;;16.03;;
10281;SDS011;5186;59.472;18.048;2022-08-19T06:18:51;19.30;;;15.87;;
10281;SDS011;5186;59.472;18.048;2022-08-19T06:21:21;18.47;;;15.47;;
10281;SDS011;5186;59.472;18.048;2022-08-19T06:23:48;18.77;;;13.83;;
10281;SDS011;5186;59.472;18.048;2022-08-19T06:26:17;18.67;;;15.67;;
10281;SDS011;5186;59.472;18.048;2022-08-19T06:28:43;20.00;;;15.80;;
10281;SDS011;5186;59.472;18.048;2022-08-19T06:31:19;17.23;;;15.20;;
10281;SDS011;5186;59.472;18.048;2022-08-19T06:33:47;18.77;;;14.93;;
10281;SDS011;5186;59.472;18.048;2022-08-19T06:36:24;17.20;;;14.70;;
10281;SDS011;5186;59.472;18.048;2022-08-19T06:38:59;16.17;;;14.27;;
10281;SDS011;5186;59.472;18.048;2022-08-19T06:41:26;16.97;;;14.63;;
10281;SDS011;5186;59.472;18.048;2022-08-19T06:43:53;14.93;;;13.07;;
10281;SDS011;5186;59.472;18.048;2022-08-19T06:46:19;18.50;;;13.70;;
10281;SDS011;5186;59.472;18.048;2022-08-19T06:48:45;15.97;;;12.30;;
10281;SDS011;5186;59.472;18.048;2022-08-19T06:51:15;12.60;;;11.30;;
10281;SDS011;5186;59.472;18.048;2022-08-19T06:53:44;13.27;;;11.90;;
10281;SDS011;5186;59.472;18.048;2022-08-19T06:56:12;13.40;;;11.57;;
10281;SDS011;5186;59.472;18.048;2022-08-19T06:58:39;14.63;;;12.03;;
10281;SDS011;5186;59.472;18.048;2022-08-19T07:01:05;13.40;;;11.50;;
10281;SDS011;5186;59.472;18.048;2022-08-19T07:03:31;14.63;;;12.20;;
10281;SDS011;5186;59.472;18.048;2022-08-19T07:06:04;13.53;;;11.87;;
10281;SDS011;5186;59.472;18.048;2022-08-19T07:08:32;16.03;;;11.97;;
10281;SDS011;5186;59.472;18.048;2022-08-19T07:11:01;12.80;;;11.43;;
10281;SDS011;5186;59.472;18.048;2022-08-19T07:13:30;12.90;;;11.10;;
10281;SDS011;5186;59.472;18.048;2022-08-19T07:15:58;13.03;;;10.43;;
10281;SDS011;5186;59.472;18.048;2022-08-19T07:18:27;11.60;;;10.50;;
10281;SDS011;5186;59.472;18.048;2022-08-19T07:21:01;13.30;;;10.83;;
10281;SDS011;5186;59.472;18.048;2022-08-19T07:23:32;12.47;;;10.10;;
10281;SDS011;5186;59.472;18.048;2022-08-19T07:26:05;14.10;;;10.03;;
10281;SDS011;5186;59.472;18.048;2022-08-19T07:28:35;13.23;;;9.20;;
10281;SDS011;5186;59.472;18.048;2022-08-19T07:31:04;12.53;;;9.63;;
10281;SDS011;5186;59.472;18.048;2022-08-19T07:33:33;12.70;;;10.30;;
10281;SDS011;5186;59.472;18.048;2022-08-19T07:36:02;12.27;;;9.10;;
10281;SDS011;5186;59.472;18.048;2022-08-19T07:38:33;12.13;;;9.20;;
10281;SDS011;5186;59.472;18.048;2022-08-19T07:40:59;16.03;;;9.60;;
10281;SDS011;5186;59.472;18.048;2022-08-19T07:43:26;12.40;;;9.23;;
10281;SDS011;5186;59.472;18.048;2022-08-19T07:45:53;13.10;;;8.67;;
10281;SDS011;5186;59.472;18.048;2022-08-19T07:48:22;13.27;;;8.50;;
10281;SDS011;5186;59.472;18.048;2022-08-19T07:50:50;10.83;;;8.63;;
10281;SDS011;5186;59.472;18.048;2022-08-19T07:53:21;10.57;;;7.80;;
10281;SDS011;5186;59.472;18.048;2022-08-19T07:55:48;10.93;;;8.17;;
10281;SDS011;5186;59.472;18.048;2022-08-19T07:58:16;13.17;;;8.77;;
10281;SDS011;5186;59.472;18.048;2022-08-19T08:00:44;12.70;;;7.97;;
10281;SDS011;5186;59.472;18.048;2022-08-19T08:03:11;11.50;;;7.77;;
10281;SDS011;5186;59.472;18.048;2022-08-19T08:05:37;10.20;;;7.50;;
10281;SDS011;5186;59.472;18.048;2022-08-19T08:08:21;12.40;;;7.20;;
10281;SDS011;5186;59.472;18.048;2022-08-19T08:10:56;12.60;;;7.10;;
10281;SDS011;5186;59.472;18.048;2022-08-19T08:13:22;11.50;;;7.03;;
10281;SDS011;5186;59.472;18.048;2022-08-19T08:15:49;12.10;;;7.67;;
10281;SDS011;5186;59.472;18.048;2022-08-19T08:18:14;10.50;;;6.90;;
10281;SDS011;5186;59.472;18.048;2022-08-19T08:20:40;15.93;;;7.40;;
10281;SDS011;5186;59.472;18.048;2022-08-19T08:23:06;10.57;;;6.87;;
10281;SDS011;5186;59.472;18.048;2022-08-19T08:25:47;10.47;;;7.00;;
10281;SDS011;5186;59.472;18.048;2022-08-19T08:28:13;10.30;;;6.93;;
10281;SDS011;5186;59.472;18.048;2022-08-19T08:30:39;12.20;;;7.30;;
10281;SDS011;5186;59.472;18.048;2022-08-19T08:33:07;10.47;;;7.37;;
10281;SDS011;5186;59.472;18.048;2022-08-19T08:35:33;11.20;;;7.20;;
10281;SDS011;5186;59.472;18.048;2022-08-19T08:37:59;11.47;;;7.70;;
10281;SDS011;5186;59.472;18.048;2022-08-19T08:40:29;12.00;;;6.87;;
10281;SDS011;5186;59.472;18.048;2022-08-19T08:45:36;14.27;;;7.47;;
10281;SDS011;5186;59.472;18.048;2022-08-19T08:48:14;8.73;;;7.00;;
10281;SDS011;5186;59.472;18.048;2022-08-19T08:50:46;7.77;;;7.00;;
10281;SDS011;5186;59.472;18.048;2022-08-19T08:53:13;9.60;;;6.70;;
10281;SDS011;5186;59.472;18.048;2022-08-19T08:55:41;9.57;;;7.27;;
10281;SDS011;5186;59.472;18.048;2022-08-19T08:58:09;11.43;;;7.50;;
10281;SDS011;5186;59.472;18.048;2022-08-19T09:00:46;10.67;;;7.30;;
10281;SDS011;5186;59.472;18.048;2022-08-19T09:03:18;11.13;;;6.97;;
10281;SDS011;5186;59.472;18.048;2022-08-19T09:09:00;8.10;;;6.60;;
10281;SDS011;5186;59.472;18.048;2022-08-19T09:11:09;13.97;;;7.10;;
10281;SDS011;5186;59.472;18.048;2022-08-19T09:16:20;10.37;;;6.80;;
10281;SDS011;5186;59.472;18.048;2022-08-19T09:18:53;10.53;;;7.00;;
10281;SDS011;5186;59.472;18.048;2022-08-19T09:21:23;12.83;;;7.03;;
10281;SDS011;5186;59.472;18.048;2022-08-19T09:23:50;10.30;;;7.10;;
10281;SDS011;5186;59.472;18.048;2022-08-19T09:26:18;9.03;;;5.83;;
10281;SDS011;5186;59.472;18.048;2022-08-19T09:28:47;8.40;;;6.00;;
10281;SDS011;5186;59.472;18.048;2022-08-19T09:31:15;9.13;;;6.40;;
10281;SDS011;5186;59.472;18.048;2022-08-19T09:33:43;7.47;;;6.20;;
10281;SDS011;5186;59.472;18.048;2022-08-19T09:36:11;11.77;;;5.90;;
10281;SDS011;5186;59.472;18.048;2022-08-19T09:38:38;7.67;;;5.93;;
10281;SDS011;5186;59.472;18.048;2022-08-19T09:41:06;11.30;;;5.80;;
10281;SDS011;5186;59.472;18.048;2022-08-19T09:43:36;8.47;;;5.83;;
10281;SDS011;5186;59.472;18.048;2022-08-19T09:46:02;11.23;;;5.80;;
10281;SDS011;5186;59.472;18.048;2022-08-19T09:48:31;10.97;;;5.80;;
10281;SDS011;5186;59.472;18.048;2022-08-19T09:51:07;11.53;;;5.87;;
10281;SDS011;5186;59.472;18.048;2022-08-19T09:53:35;7.17;;;5.50;;
10281;SDS011;5186;59.472;18.048;2022-08-19T09:56:02;6.63;;;5.90;;
10281;SDS011;5186;59.472;18.048;2022-08-19T09:58:29;7.07;;;5.20;;
10281;SDS011;5186;59.472;18.048;2022-08-19T10:00:55;9.27;;;6.10;;
10281;SDS011;5186;59.472;18.048;2022-08-19T10:03:23;8.67;;;5.27;;
10281;SDS011;5186;59.472;18.048;2022-08-19T10:05:49;8.07;;;5.63;;
10281;SDS011;5186;59.472;18.048;2022-08-19T10:08:19;7.27;;;5.60;;
10281;SDS011;5186;59.472;18.048;2022-08-19T10:10:50;6.83;;;5.83;;
10281;SDS011;5186;59.472;18.048;2022-08-19T10:13:17;11.07;;;6.20;;
10281;SDS011;5186;59.472;18.048;2022-08-19T10:15:48;8.00;;;5.60;;
10281;SDS011;5186;59.472;18.048;2022-08-19T10:18:17;7.93;;;5.67;;
10281;SDS011;5186;59.472;18.048;2022-08-19T10:20:44;7.63;;;5.37;;
10281;SDS011;5186;59.472;18.048;2022-08-19T10:23:12;8.03;;;5.50;;
10281;SDS011;5186;59.472;18.048;2022-08-19T10:25:38;8.03;;;5.50;;
10281;SDS011;5186;59.472;18.048;2022-08-19T10:28:04;6.50;;;5.07;;
10281;SDS011;5186;59.472;18.048;2022-08-19T10:30:32;6.27;;;5.10;;
10281;SDS011;5186;59.472;18.048;2022-08-19T10:32:58;10.80;;;5.43;;
10281;SDS011;5186;59.472;18.048;2022-08-19T10:35:24;10.97;;;5.83;;
10281;SDS011;5186;59.472;18.048;2022-08-19T10:37:54;6.47;;;5.30;;
10281;SDS011;5186;59.472;18.048;2022-08-19T10:40:24;10.80;;;5.60;;
10281;SDS011;5186;59.472;18.048;2022-08-19T10:42:51;8.33;;;5.10;;
10281;SDS011;5186;59.472;18.048;2022-08-19T10:45:16;6.57;;;5.57;;
10281;SDS011;5186;59.472;18.048;2022-08-19T10:47:42;12.17;;;5.47;;
10281;SDS011;5186;59.472;18.048;2022-08-19T10:50:07;8.17;;;5.40;;
10281;SDS011;5186;59.472;18.048;2022-08-19T10:52:52;9.33;;;5.50;;
10281;SDS011;5186;59.472;18.048;2022-08-19T10:55:19;8.10;;;5.50;;
10281;SDS011;5186;59.472;18.048;2022-08-19T10:58:13;7.47;;;5.23;;
10281;SDS011;5186;59.472;18.048;2022-08-19T11:00:40;8.50;;;5.63;;
10281;SDS011;5186;59.472;18.048;2022-08-19T11:03:07;9.20;;;5.60;;
10281;SDS011;5186;59.472;18.048;2022-08-19T11:05:33;6.63;;;5.50;;
10281;SDS011;5186;59.472;18.048;2022-08-19T11:07:59;7.60;;;5.50;;
10281;SDS011;5186;59.472;18.048;2022-08-19T11:10:24;8.40;;;5.40;;
10281;SDS011;5186;59.472;18.048;2022-08-19T11:12:50;6.60;;;5.27;;
10281;SDS011;5186;59.472;18.048;2022-08-19T11:15:19;7.80;;;5.27;;
10281;SDS011;5186;59.472;18.048;2022-08-19T11:17:45;5.93;;;4.93;;
10281;SDS011;5186;59.472;18.048;2022-08-19T11:20:11;8.50;;;5.33;;
10281;SDS011;5186;59.472;18.048;2022-08-19T11:22:38;8.00;;;5.07;;
10281;SDS011;5186;59.472;18.048;2022-08-19T11:25:05;7.63;;;5.27;;
10281;SDS011;5186;59.472;18.048;2022-08-19T11:27:32;6.57;;;5.37;;
10281;SDS011;5186;59.472;18.048;2022-08-19T11:29:58;9.90;;;5.30;;
10281;SDS011;5186;59.472;18.048;2022-08-19T11:32:25;13.57;;;5.83;;
10281;SDS011;5186;59.472;18.048;2022-08-19T11:34:51;6.30;;;5.63;;
10281;SDS011;5186;59.472;18.048;2022-08-19T11:37:16;7.53;;;5.40;;
10281;SDS011;5186;59.472;18.048;2022-08-19T11:39:42;10.80;;;5.20;;
10281;SDS011;5186;59.472;18.048;2022-08-19T11:42:08;7.10;;;5.10;;
10281;SDS011;5186;59.472;18.048;2022-08-19T11:44:52;7.00;;;5.53;;
10281;SDS011;5186;59.472;18.048;2022-08-19T11:47:18;9.57;;;5.80;;
10281;SDS011;5186;59.472;18.048;2022-08-19T11:49:45;5.70;;;5.10;;
10281;SDS011;5186;59.472;18.048;2022-08-19T11:52:11;6.93;;;5.33;;
10281;SDS011;5186;59.472;18.048;2022-08-19T11:54:37;8.63;;;5.33;;
10281;SDS011;5186;59.472;18.048;2022-08-19T11:57:03;6.20;;;5.07;;
10281;SDS011;5186;59.472;18.048;2022-08-19T11:59:29;10.00;;;5.27;;
10281;SDS011;5186;59.472;18.048;2022-08-19T12:01:54;6.80;;;5.17;;
10281;SDS011;5186;59.472;18.048;2022-08-19T12:04:21;11.47;;;5.43;;
10281;SDS011;5186;59.472;18.048;2022-08-19T12:06:47;8.50;;;5.50;;
10281;SDS011;5186;59.472;18.048;2022-08-19T12:09:13;7.13;;;5.20;;
10281;SDS011;5186;59.472;18.048;2022-08-19T12:11:40;10.50;;;5.70;;
10281;SDS011;5186;59.472;18.048;2022-08-19T12:14:08;9.33;;;5.13;;
10281;SDS011;5186;59.472;18.048;2022-08-19T12:16:36;10.47;;;5.10;;
10281;SDS011;5186;59.472;18.048;2022-08-19T12:19:03;6.77;;;5.10;;
10281;SDS011;5186;59.472;18.048;2022-08-19T12:21:30;6.63;;;5.33;;
10281;SDS011;5186;59.472;18.048;2022-08-19T12:23:58;6.70;;;4.90;;
10281;SDS011;5186;59.472;18.048;2022-08-19T12:26:25;7.47;;;5.30;;
10281;SDS011;5186;59.472;18.048;2022-08-19T12:28:52;9.30;;;5.20;;
10281;SDS011;5186;59.472;18.048;2022-08-19T12:31:18;8.80;;;5.20;;
10281;SDS011;5186;59.472;18.048;2022-08-19T12:33:44;7.83;;;5.23;;
10281;SDS011;5186;59.472;18.048;2022-08-19T12:36:11;7.10;;;5.17;;
10281;SDS011;5186;59.472;18.048;2022-08-19T12:38:39;9.30;;;5.10;;
10281;SDS011;5186;59.472;18.048;2022-08-19T12:41:05;7.80;;;5.13;;
10281;SDS011;5186;59.472;18.048;2022-08-19T12:43:35;8.30;;;5.43;;
10281;SDS011;5186;59.472;18.048;2022-08-19T12:46:01;7.70;;;5.40;;
10281;SDS011;5186;59.472;18.048;2022-08-19T12:48:29;7.00;;;5.10;;
10281;SDS011;5186;59.472;18.048;2022-08-19T12:50:55;8.37;;;4.73;;
10281;SDS011;5186;59.472;18.048;2022-08-19T12:53:21;10.47;;;5.67;;
10281;SDS011;5186;59.472;18.048;2022-08-19T12:55:47;5.37;;;4.83;;
10281;SDS011;5186;59.472;18.048;2022-08-19T12:58:20;7.33;;;5.10;;
10281;SDS011;5186;59.472;18.048;2022-08-19T13:00:46;6.20;;;4.73;;
10281;SDS011;5186;59.472;18.048;2022-08-19T13:03:13;8.53;;;5.57;;
10281;SDS011;5186;59.472;18.048;2022-08-19T13:05:38;6.27;;;5.43;;
10281;SDS011;5186;59.472;18.048;2022-08-19T13:08:04;6.93;;;4.70;;
10281;SDS011;5186;59.472;18.048;2022-08-19T13:10:31;9.50;;;5.43;;
10281;SDS011;5186;59.472;18.048;2022-08-19T13:12:59;10.77;;;5.53;;
10281;SDS011;5186;59.472;18.048;2022-08-19T13:15:26;6.90;;;5.20;;
10281;SDS011;5186;59.472;18.048;2022-08-19T13:17:53;7.77;;;5.20;;
10281;SDS011;5186;59.472;18.048;2022-08-19T13:20:21;8.90;;;5.43;;
10281;SDS011;5186;59.472;18.048;2022-08-19T13:22:47;9.53;;;5.17;;
10281;SDS011;5186;59.472;18.048;2022-08-19T13:25:14;9.97;;;5.20;;
10281;SDS011;5186;59.472;18.048;2022-08-19T13:27:42;8.63;;;4.90;;
10281;SDS011;5186;59.472;18.048;2022-08-19T13:30:10;7.67;;;5.03;;
10281;SDS011;5186;59.472;18.048;2022-08-19T13:32:57;8.17;;;5.03;;
10281;SDS011;5186;59.472;18.048;2022-08-19T13:35:48;10.13;;;5.13;;
10281;SDS011;5186;59.472;18.048;2022-08-19T13:38:19;9.90;;;5.07;;
10281;SDS011;5186;59.472;18.048;2022-08-19T13:40:46;11.47;;;5.20;;
10281;SDS011;5186;59.472;18.048;2022-08-19T13:43:15;6.03;;;5.43;;
10281;SDS011;5186;59.472;18.048;2022-08-19T13:45:41;7.07;;;4.63;;
10281;SDS011;5186;59.472;18.048;2022-08-19T13:48:07;7.30;;;5.00;;
10281;SDS011;5186;59.472;18.048;2022-08-19T13:50:34;5.70;;;4.90;;
10281;SDS011;5186;59.472;18.048;2022-08-19T13:53:06;7.47;;;5.43;;
10281;SDS011;5186;59.472;18.048;2022-08-19T13:55:33;7.47;;;4.93;;
10281;SDS011;5186;59.472;18.048;2022-08-19T13:58:01;7.00;;;5.10;;
10281;SDS011;5186;59.472;18.048;2022-08-19T14:00:28;6.47;;;5.40;;
10281;SDS011;5186;59.472;18.048;2022-08-19T14:02:57;11.13;;;5.20;;
10281;SDS011;5186;59.472;18.048;2022-08-19T14:05:23;8.30;;;5.10;;
10281;SDS011;5186;59.472;18.048;2022-08-19T14:07:50;12.47;;;5.27;;
10281;SDS011;5186;59.472;18.048;2022-08-19T14:10:16;8.03;;;5.00;;
10281;SDS011;5186;59.472;18.048;2022-08-19T14:12:43;8.27;;;4.93;;
10281;SDS011;5186;59.472;18.048;2022-08-19T14:15:10;6.80;;;4.80;;
10281;SDS011;5186;59.472;18.048;2022-08-19T14:17:37;7.87;;;5.23;;
10281;SDS011;5186;59.472;18.048;2022-08-19T14:20:08;7.17;;;5.33;;
10281;SDS011;5186;59.472;18.048;2022-08-19T14:22:36;7.20;;;5.00;;
10281;SDS011;5186;59.472;18.048;2022-08-19T14:25:03;10.17;;;5.63;;
10281;SDS011;5186;59.472;18.048;2022-08-19T14:27:34;11.13;;;5.60;;
10281;SDS011;5186;59.472;18.048;2022-08-19T14:30:02;6.87;;;5.00;;
10281;SDS011;5186;59.472;18.048;2022-08-19T14:32:29;10.30;;;5.40;;
10281;SDS011;5186;59.472;18.048;2022-08-19T14:34:55;9.07;;;5.07;;
10281;SDS011;5186;59.472;18.048;2022-08-19T14:37:20;8.47;;;5.17;;
10281;SDS011;5186;59.472;18.048;2022-08-19T14:39:49;7.70;;;5.03;;
10281;SDS011;5186;59.472;18.048;2022-08-19T14:42:15;8.17;;;4.90;;
10281;SDS011;5186;59.472;18.048;2022-08-19T14:44:41;7.57;;;5.20;;
10281;SDS011;5186;59.472;18.048;2022-08-19T14:47:07;10.73;;;5.13;;
10281;SDS011;5186;59.472;18.048;2022-08-19T14:49:33;8.67;;;4.80;;